Time;durP1;ratioP1;P1;durP2;ratioP2;P2;SDS_P1;SDS_P2;PMS_P1;PMS_P2;Temp;Humidity;BMP_temperature;BMP_pressure;BME280_temperature;BME280_humidity;BME280_pressure;Samples;Min_cycle;Max_cycle;Signal;HPM_P1;HPM_P2
2021/05/29 00:03:27;;;;;;;3.80;2.60;;;;;;;12.64;58.97;98503.66;8354543;28;20236;-83
2021/05/29 00:07:30;;;;;;;3.50;2.87;;;;;;;12.62;58.56;98501.16;8353786;28;20235;-84
2021/05/29 00:11:33;;;;;;;3.57;2.73;;;;;;;12.64;58.46;98508.88;8353083;28;20224;-83
2021/05/29 00:15:36;;;;;;;6.43;2.70;;;;;;;12.58;58.25;98502.19;8352862;28;20201;-83
2021/05/29 00:19:39;;;;;;;2.67;2.40;;;;;;;12.52;58.46;98489.47;8352750;28;20275;-84
2021/05/29 00:23:41;;;;;;;3.80;2.90;;;;;;;12.47;58.38;98494.88;8353290;28;20208;-84
2021/05/29 00:27:44;;;;;;;3.87;2.83;;;;;;;12.49;58.50;98502.63;8356951;28;20231;-84
2021/05/29 00:31:47;;;;;;;3.23;2.90;;;;;;;12.47;58.18;98499.22;8353207;28;20211;-85
2021/05/29 00:35:49;;;;;;;3.93;2.60;;;;;;;12.35;58.20;98491.97;8355790;28;20413;-84
2021/05/29 00:39:52;;;;;;;3.63;2.60;;;;;;;12.24;57.92;98482.91;8351150;28;20366;-84
2021/05/29 00:43:55;;;;;;;4.10;2.67;;;;;;;12.20;58.19;98483.91;8351889;28;20201;-84
2021/05/29 00:47:59;;;;;;;3.73;2.90;;;;;;;12.20;58.00;98491.69;8351718;28;20228;-84
2021/05/29 00:52:02;;;;;;;3.00;2.60;;;;;;;12.18;58.33;98485.72;8351406;28;20212;-82
2021/05/29 00:56:06;;;;;;;6.97;2.80;;;;;;;12.20;58.07;98476.13;8351855;28;20211;-83
2021/05/29 01:00:11;;;;;;;4.03;2.80;;;;;;;12.09;58.36;98478.34;8351188;28;20211;-84
2021/05/29 01:04:13;;;;;;;3.53;2.47;;;;;;;11.99;58.51;98483.06;8351694;28;20240;-84
2021/05/29 01:08:16;;;;;;;4.67;2.70;;;;;;;11.99;58.27;98483.06;8350973;28;20240;-83
2021/05/29 01:12:18;;;;;;;5.13;2.77;;;;;;;11.90;58.25;98479.13;8350882;28;20200;-83
2021/05/29 01:16:42;;;;;;;5.80;3.10;;;;;;;12.00;57.27;98476.97;8351246;28;20201;-84
2021/05/29 01:20:45;;;;;;;6.40;5.80;;;;;;;11.96;57.56;98477.19;8350829;28;20526;-84
2021/05/29 01:24:48;;;;;;;5.67;2.80;;;;;;;11.95;57.81;98488.47;8350676;28;20391;-84
2021/05/29 01:28:55;;;;;;;3.97;2.50;;;;;;;11.91;57.42;98485.97;8350123;28;20292;-84
2021/05/29 01:32:58;;;;;;;3.83;2.87;;;;;;;11.80;57.38;98482.13;8350609;28;20541;-84
2021/05/29 01:37:02;;;;;;;3.63;2.33;;;;;;;11.77;57.42;98493.47;8350458;28;20209;-83
2021/05/29 01:41:08;;;;;;;3.13;2.40;;;;;;;11.74;57.48;98493.59;8350010;28;20200;-83
2021/05/29 01:45:11;;;;;;;3.60;2.87;;;;;;;11.58;58.00;98490.78;8349876;28;20200;-82
2021/05/29 01:49:13;;;;;;;3.47;2.73;;;;;;;11.70;57.64;98484.25;8349564;28;20228;-82
2021/05/29 01:53:17;;;;;;;4.37;2.70;;;;;;;11.56;57.39;98479.63;8349233;28;20200;-83
2021/05/29 01:57:20;;;;;;;3.93;3.00;;;;;;;11.55;57.89;98483.94;8349333;28;20208;-83
2021/05/29 02:01:22;;;;;;;3.37;2.90;;;;;;;11.54;57.47;98484.88;8348893;28;20240;-83
2021/05/29 02:05:26;;;;;;;5.33;2.63;;;;;;;11.45;58.19;98486.97;8349174;28;20204;-83
2021/05/29 02:09:29;;;;;;;4.03;2.77;;;;;;;11.40;59.03;98492.34;8349236;28;20232;-83
2021/05/29 02:13:33;;;;;;;3.47;2.67;;;;;;;11.45;59.04;98487.81;8348034;28;20212;-83
2021/05/29 02:17:36;;;;;;;2.93;2.63;;;;;;;11.42;58.59;98489.69;8349211;28;20204;-83
2021/05/29 02:21:38;;;;;;;3.70;2.70;;;;;;;11.43;58.60;98488.78;8349016;28;20488;-82
2021/05/29 02:25:41;;;;;;;2.53;2.33;;;;;;;11.46;58.57;98486.06;8348340;28;20201;-83
2021/05/29 02:29:44;;;;;;;4.00;2.70;;;;;;;11.49;58.36;98489.38;8347885;28;20228;-83
2021/05/29 02:33:47;;;;;;;4.53;2.47;;;;;;;11.44;57.55;98501.72;8348209;28;20200;-84
2021/05/29 02:37:49;;;;;;;4.50;2.67;;;;;;;11.37;58.03;98502.84;8348130;28;20502;-83
2021/05/29 02:41:52;;;;;;;5.73;2.80;;;;;;;11.47;57.76;98498.13;8348185;28;20207;-83
2021/05/29 02:45:55;;;;;;;3.20;2.90;;;;;;;11.18;58.90;98489.75;8347941;28;20200;-83
2021/05/29 02:49:57;;;;;;;3.37;2.90;;;;;;;11.22;58.46;98491.31;8348157;28;20366;-83
2021/05/29 02:54:00;;;;;;;5.37;3.07;;;;;;;11.33;58.11;98496.09;8347834;28;20200;-83
2021/05/29 02:58:05;;;;;;;7.43;2.80;;;;;;;11.28;58.30;98496.25;8347650;28;20215;-83
2021/05/29 03:02:10;;;;;;;8.63;3.27;;;;;;;11.22;57.97;98493.06;8347128;28;20228;-83
2021/05/29 03:06:12;;;;;;;3.43;3.13;;;;;;;11.18;58.04;98491.50;8347747;28;20207;-83
2021/05/29 03:10:15;;;;;;;4.17;2.60;;;;;;;11.07;57.72;98489.31;8347012;28;20244;-84
2021/05/29 03:14:18;;;;;;;6.83;2.80;;;;;;;11.08;57.40;98486.66;8347409;28;20495;-84
2021/05/29 03:18:21;;;;;;;5.30;3.00;;;;;;;11.01;56.99;98482.63;8348489;28;20231;-83
2021/05/29 03:22:23;;;;;;;4.93;2.77;;;;;;;11.04;57.13;98479.91;8346837;28;20200;-82
2021/05/29 03:26:26;;;;;;;3.50;2.70;;;;;;;10.97;56.92;98481.03;8347173;28;20211;-83
2021/05/29 03:30:30;;;;;;;7.17;2.60;;;;;;;10.99;56.82;98489.59;8346898;28;20231;-83
2021/05/29 03:34:33;;;;;;;4.13;2.70;;;;;;;10.88;56.90;98492.59;8347329;28;20209;-83
2021/05/29 03:38:35;;;;;;;3.27;2.57;;;;;;;10.90;56.78;98497.72;8347215;28;20204;-83
2021/05/29 03:42:38;;;;;;;7.60;3.23;;;;;;;10.72;57.97;98494.91;8351694;28;20487;-83
2021/05/29 03:46:41;;;;;;;5.63;2.90;;;;;;;10.86;56.85;98498.75;8346768;28;20200;-85
2021/05/29 03:50:44;;;;;;;5.93;2.67;;;;;;;10.89;57.05;98493.41;8346912;28;20224;-84
2021/05/29 03:54:47;;;;;;;5.10;2.80;;;;;;;10.84;57.35;98493.59;8346570;28;20200;-84
2021/05/29 03:58:49;;;;;;;5.17;3.17;;;;;;;10.86;57.62;98493.56;8346686;28;20299;-84
2021/05/29 04:02:52;;;;;;;5.83;3.30;;;;;;;10.83;58.54;98507.44;8346173;28;20243;-84
2021/05/29 04:06:55;;;;;;;6.03;3.20;;;;;;;10.84;58.07;98508.31;8346560;28;20207;-83
2021/05/29 04:10:58;;;;;;;3.33;2.90;;;;;;;10.91;58.09;98510.63;8346425;28;20570;-84
2021/05/29 04:15:00;;;;;;;7.27;3.73;;;;;;;10.88;58.50;98515.91;8346440;28;20200;-84
2021/05/29 04:19:03;;;;;;;8.67;4.07;;;;;;;10.96;58.53;98508.69;8345994;28;20204;-84
2021/05/29 04:23:07;;;;;;;3.87;3.43;;;;;;;11.04;58.21;98512.75;8346169;28;20402;-85
2021/05/29 04:27:09;;;;;;;4.33;3.60;;;;;;;10.98;58.61;98516.41;8345968;28;20209;-85
2021/05/29 04:31:11;;;;;;;3.47;3.10;;;;;;;11.06;58.62;98526.50;8346252;28;20225;-82
2021/05/29 04:35:14;;;;;;;4.93;3.43;;;;;;;11.04;59.28;98528.28;8347718;28;20200;-83
2021/05/29 04:39:18;;;;;;;5.27;3.50;;;;;;;11.10;59.21;98538.44;8352217;28;20208;-83
2021/05/29 04:43:20;;;;;;;4.77;3.43;;;;;;;11.11;59.12;98535.78;8352013;28;20207;-84
2021/05/29 04:47:23;;;;;;;4.93;3.87;;;;;;;11.04;59.44;98538.66;8351852;28;20201;-84
2021/05/29 04:51:25;;;;;;;5.63;3.83;;;;;;;11.18;59.03;98544.19;8351371;28;20388;-83
2021/05/29 04:55:28;;;;;;;6.03;3.60;;;;;;;11.36;59.44;98547.81;8351276;28;20213;-84
2021/05/29 04:59:31;;;;;;;6.53;3.50;;;;;;;11.45;59.48;98541.44;8351213;28;20208;-82
2021/05/29 05:03:33;;;;;;;6.10;3.33;;;;;;;11.49;60.04;98533.47;8350797;28;20337;-83
2021/05/29 05:07:36;;;;;;;7.57;3.70;;;;;;;11.58;60.28;98539.22;8350782;28;20212;-83
2021/05/29 05:11:39;;;;;;;4.30;3.40;;;;;;;11.83;59.34;98545.13;8350537;28;20235;-82
2021/05/29 05:15:41;;;;;;;3.57;3.27;;;;;;;11.80;60.26;98542.63;8350941;28;20477;-83
2021/05/29 05:19:44;;;;;;;3.70;3.03;;;;;;;12.09;59.77;98551.03;8350523;28;20205;-83
2021/05/29 05:23:49;;;;;;;4.30;3.40;;;;;;;12.10;60.02;98558.75;8350687;28;20491;-83
2021/05/29 05:27:52;;;;;;;3.70;3.30;;;;;;;12.17;60.18;98555.94;8350381;28;20211;-82
2021/05/29 05:31:55;;;;;;;4.90;3.33;;;;;;;12.40;59.63;98561.00;8350123;28;20305;-82
2021/05/29 05:35:57;;;;;;;5.77;3.53;;;;;;;12.36;60.16;98558.59;8350294;28;20200;-82
2021/05/29 05:40:00;;;;;;;4.63;3.07;;;;;;;12.59;59.59;98561.06;8349877;28;20526;-83
2021/05/29 05:44:08;;;;;;;6.83;3.70;;;;;;;12.69;59.89;98569.28;8350046;28;20228;-83
2021/05/29 05:48:10;;;;;;;5.37;3.40;;;;;;;12.69;60.11;98569.28;8349947;28;20412;-87
2021/05/29 05:52:13;;;;;;;13.97;4.30;;;;;;;12.78;60.12;98575.84;8352683;28;20223;-86
2021/05/29 05:56:25;;;;;;;3.93;3.47;;;;;;;12.98;59.46;98573.19;8353592;28;20211;-85
2021/05/29 06:00:29;;;;;;;4.30;2.97;;;;;;;13.34;58.90;98576.84;8351661;28;20487;-85
2021/05/29 06:04:31;;;;;;;4.20;3.20;;;;;;;13.31;58.63;98570.03;8350198;28;20394;-85
2021/05/29 06:08:34;;;;;;;3.70;3.13;;;;;;;13.66;57.65;98573.59;8348494;28;20228;-84
2021/05/29 06:12:40;;;;;;;4.77;2.90;;;;;;;13.64;58.59;98575.41;8349339;28;20212;-85
2021/05/29 06:21:05;;;;;;;5.23;2.93;;;;;;;14.04;56.94;98588.31;8349031;28;20238;-83
2021/05/29 06:25:09;;;;;;;4.57;2.70;;;;;;;14.02;55.30;98584.94;8349425;28;20235;-84
2021/05/29 06:29:11;;;;;;;3.47;2.50;;;;;;;14.19;55.71;98582.34;8349226;28;20228;-83
2021/05/29 06:33:15;;;;;;;4.40;2.50;;;;;;;14.34;54.94;98585.94;8349059;28;20204;-83
2021/05/29 06:37:17;;;;;;;4.53;3.23;;;;;;;14.35;55.33;98582.41;8349097;28;20212;-83
2021/05/29 06:41:20;;;;;;;3.77;2.90;;;;;;;14.70;55.93;98584.19;8348992;28;20457;-84
2021/05/29 06:45:22;;;;;;;3.57;2.40;;;;;;;14.78;54.96;98592.47;8350099;28;20204;-84
2021/05/29 06:49:25;;;;;;;3.70;2.60;;;;;;;14.84;53.57;98603.41;8337658;28;20225;-85
2021/05/29 06:53:33;;;;;;;3.13;2.40;;;;;;;15.03;54.11;98608.50;8332138;28;20192;-83
2021/05/29 07:01:58;;;;;;;6.50;2.60;;;;;;;15.49;52.81;98607.84;8314625;28;20343;-84
2021/05/29 07:06:02;;;;;;;5.80;2.67;;;;;;;15.42;52.08;98607.34;8314889;28;20351;-83
2021/05/29 07:10:06;;;;;;;3.90;2.13;;;;;;;15.61;52.29;98609.78;8314606;28;20267;-83
2021/05/29 07:14:11;;;;;;;4.37;2.40;;;;;;;15.83;50.78;98603.41;8314698;28;20205;-83
2021/05/29 07:18:23;;;;;;;6.13;2.13;;;;;;;15.77;50.26;98601.16;8314297;28;20208;-84
2021/05/29 07:22:27;;;;;;;2.50;2.10;;;;;;;15.81;49.75;98605.28;8314241;28;20208;-84
2021/05/29 07:26:29;;;;;;;2.93;2.40;;;;;;;15.79;48.95;98600.13;8314264;28;20208;-84
2021/05/29 07:30:32;;;;;;;3.97;2.40;;;;;;;16.15;49.10;98603.38;8314007;28;20229;-83
2021/05/29 07:34:34;;;;;;;3.03;2.23;;;;;;;16.13;48.26;98598.22;8314003;28;20395;-84
2021/05/29 07:38:37;;;;;;;4.03;2.40;;;;;;;15.69;49.70;98598.94;8313996;28;20496;-84
2021/05/29 07:42:41;;;;;;;3.40;2.17;;;;;;;16.27;48.79;98600.03;8313937;28;20205;-85
2021/05/29 07:46:44;;;;;;;4.33;2.27;;;;;;;16.68;47.69;98607.25;8313995;28;20272;-84
2021/05/29 07:55:11;;;;;;;2.47;1.90;;;;;;;18.03;44.55;98597.25;8312462;28;20212;-81
2021/05/29 07:59:16;;;;;;;2.80;1.67;;;;;;;18.36;42.86;98602.09;8316468;28;20207;-81
2021/05/29 08:03:20;;;;;;;2.50;1.60;;;;;;;18.42;41.62;98601.69;8316891;28;20244;-80
2021/05/29 08:07:22;;;;;;;2.90;1.70;;;;;;;18.15;42.73;98599.09;8318726;28;20232;-82
2021/05/29 08:11:26;;;;;;;2.60;1.70;;;;;;;18.82;41.14;98591.16;8322908;28;20324;-81
2021/05/29 08:15:28;;;;;;;1.63;1.40;;;;;;;19.33;41.49;98609.50;8325657;28;20276;-82
2021/05/29 08:19:30;;;;;;;3.77;1.70;;;;;;;18.51;42.38;98611.56;8324778;28;20205;-82
2021/05/29 08:23:33;;;;;;;2.67;1.10;;;;;;;18.44;41.61;98602.41;8323898;28;20268;-82
2021/05/29 08:27:37;;;;;;;3.07;1.80;;;;;;;18.62;39.71;98616.09;8325552;28;20236;-82
2021/05/29 08:31:39;;;;;;;3.07;1.40;;;;;;;17.59;43.45;98604.38;8325888;28;20325;-83
2021/05/29 08:35:42;;;;;;;1.80;1.30;;;;;;;18.48;39.99;98603.06;8325426;28;20216;-81
2021/05/29 08:39:44;;;;;;;2.53;1.70;;;;;;;19.09;39.56;98613.81;8323991;28;20202;-82
2021/05/29 08:43:48;;;;;;;4.47;1.60;;;;;;;19.70;39.34;98612.16;8323312;28;20208;-82
2021/05/29 08:47:51;;;;;;;4.37;1.23;;;;;;;20.16;36.81;98601.88;8325821;28;20268;-84
2021/05/29 08:51:56;;;;;;;1.83;1.50;;;;;;;20.67;37.58;98606.88;8349237;28;20225;-84
2021/05/29 08:55:59;;;;;;;3.43;1.53;;;;;;;20.97;37.50;98608.97;8340846;28;20496;-83
2021/05/29 09:00:04;;;;;;;4.23;1.40;;;;;;;20.48;37.42;98602.13;8343275;28;20210;-84
2021/05/29 09:04:07;;;;;;;2.37;1.80;;;;;;;20.90;37.76;98613.00;8343130;28;20264;-84
2021/05/29 09:08:11;;;;;;;2.73;1.13;;;;;;;20.95;34.50;98615.31;8336517;28;20260;-82
2021/05/29 09:12:14;;;;;;;6.17;1.47;;;;;;;20.99;34.57;98609.69;8325462;28;20243;-83
2021/05/29 09:16:17;;;;;;;3.20;1.50;;;;;;;21.21;35.93;98603.59;8322349;28;20205;-84
2021/05/29 09:20:21;;;;;;;2.03;1.30;;;;;;;21.22;35.06;98610.53;8321352;28;20206;-82
2021/05/29 09:24:24;;;;;;;1.90;1.00;;;;;;;21.25;32.46;98604.19;8322196;28;20207;-83
2021/05/29 09:28:26;;;;;;;1.27;1.07;;;;;;;20.88;34.18;98615.75;8323156;28;20219;-83
2021/05/29 09:32:33;;;;;;;5.27;0.97;;;;;;;21.07;32.62;98619.63;8322578;28;20229;-83
2021/05/29 09:36:35;;;;;;;1.43;1.00;;;;;;;21.81;32.46;98612.06;8322582;28;20203;-82
2021/05/29 09:40:37;;;;;;;1.90;0.97;;;;;;;21.46;32.99;98612.25;8321691;28;20243;-83
2021/05/29 09:44:40;;;;;;;3.60;0.80;;;;;;;20.25;34.49;98615.19;8322009;28;20256;-84
2021/05/29 09:48:53;;;;;;;1.30;1.10;;;;;;;19.47;36.62;98620.81;8324676;28;20287;-84
2021/05/29 09:52:55;;;;;;;2.90;1.20;;;;;;;19.31;37.75;98618.44;8355956;28;20225;-84
2021/05/29 09:57:03;;;;;;;2.23;1.10;;;;;;;19.40;37.98;98620.41;8349651;28;20192;-85
2021/05/29 10:01:05;;;;;;;3.03;1.10;;;;;;;20.00;37.71;98616.16;8341048;28;20404;-84
2021/05/29 10:05:27;;;;;;;1.20;1.10;;;;;;;21.38;33.98;98606.69;8338979;28;20202;-83
2021/05/29 10:09:29;;;;;;;1.40;1.00;;;;;;;21.69;33.51;98604.31;8340268;28;20220;-84
2021/05/29 10:13:32;;;;;;;1.87;0.80;;;;;;;21.28;32.44;98604.81;8344530;28;20192;-86
2021/05/29 10:17:34;;;;;;;1.13;0.70;;;;;;;21.43;30.30;98596.63;8338797;28;20204;-85
2021/05/29 10:21:38;;;;;;;1.90;0.93;;;;;;;21.98;32.55;98600.16;8337730;28;20206;-86
2021/05/29 10:25:41;;;;;;;2.03;1.10;;;;;;;21.53;30.37;98588.88;8337232;28;20201;-85
2021/05/29 10:29:43;;;;;;;0.50;0.50;;;;;;;22.32;31.79;98591.31;8342324;28;20222;-85
2021/05/29 10:33:46;;;;;;;1.67;0.80;;;;;;;22.79;29.75;98594.38;8351400;28;20196;-86
2021/05/29 10:37:54;;;;;;;3.63;0.80;;;;;;;21.84;30.96;98593.38;8355960;28;20203;-86
2021/05/29 10:41:58;;;;;;;1.77;0.80;;;;;;;22.71;29.77;98591.56;8356370;28;20215;-85
2021/05/29 10:46:05;;;;;;;1.10;0.70;;;;;;;22.16;30.36;98583.78;8355525;28;20203;-83
2021/05/29 10:50:08;;;;;;;1.63;0.90;;;;;;;20.92;32.84;98583.94;8354673;28;20237;-84
2021/05/29 10:54:13;;;;;;;1.53;1.00;;;;;;;21.02;33.06;98582.31;8343098;28;20197;-84
2021/05/29 10:58:15;;;;;;;1.67;0.83;;;;;;;21.64;30.23;98571.22;8341267;28;20197;-85
2021/05/29 11:02:20;;;;;;;1.43;0.63;;;;;;;22.36;30.36;98567.16;8355684;28;20243;-86
2021/05/29 11:06:30;;;;;;;1.03;0.63;;;;;;;22.49;28.22;98566.16;8345592;28;20196;-84
2021/05/29 11:10:34;;;;;;;2.07;0.70;;;;;;;22.61;28.25;98568.56;8339504;28;20405;-86
2021/05/29 11:14:48;;;;;;;2.30;0.90;;;;;;;22.09;29.51;98565.00;8330166;28;20212;-83
2021/05/29 11:19:12;;;;;;;1.13;0.70;;;;;;;21.75;29.40;98559.84;8332155;28;20196;-84
2021/05/29 11:23:26;;;;;;;0.70;0.60;;;;;;;20.94;31.89;98561.81;8329571;28;20494;-84
2021/05/29 11:27:31;;;;;;;1.63;0.67;;;;;;;20.58;31.59;98554.91;8334902;28;20193;-84
2021/05/29 11:31:43;;;;;;;3.60;0.60;;;;;;;20.57;30.01;98555.88;8328957;28;20220;-83
2021/05/29 11:35:47;;;;;;;0.83;0.70;;;;;;;21.08;31.27;98571.28;8331054;28;20199;-84
2021/05/29 11:39:53;;;;;;;2.67;0.60;;;;;;;20.79;33.18;98570.88;8330980;28;20200;-84
2021/05/29 11:43:56;;;;;;;1.37;0.70;;;;;;;20.92;34.46;98573.41;8333099;28;20364;-81
2021/05/29 11:47:58;;;;;;;1.60;0.73;;;;;;;21.83;34.79;98575.84;8341260;28;20213;-84
2021/05/29 11:52:01;;;;;;;2.13;1.00;;;;;;;22.31;33.41;98579.91;8352695;28;20235;-84
2021/05/29 11:56:05;;;;;;;1.80;0.80;;;;;;;22.65;32.92;98587.63;8353172;28;20201;-85
2021/05/29 12:00:10;;;;;;;0.90;0.67;;;;;;;22.55;30.74;98579.66;8350246;28;20219;-84
2021/05/29 12:04:15;;;;;;;1.40;0.80;;;;;;;22.85;30.39;98578.03;8352734;28;20233;-85
2021/05/29 12:08:18;;;;;;;3.07;0.67;;;;;;;22.99;30.62;98575.03;8354627;28;20211;-84
2021/05/29 12:12:22;;;;;;;2.30;0.90;;;;;;;22.95;31.62;98580.72;8352710;28;20220;-84
2021/05/29 12:16:31;;;;;;;1.43;0.60;;;;;;;23.06;31.83;98578.03;8351122;28;20197;-82
2021/05/29 12:20:34;;;;;;;1.23;0.80;;;;;;;23.20;30.10;98576.81;8336056;28;20204;-83
2021/05/29 12:24:40;;;;;;;8.37;0.80;;;;;;;23.12;27.45;98572.22;8335771;28;20303;-82
2021/05/29 12:28:43;;;;;;;1.17;0.50;;;;;;;22.80;27.95;98578.41;8320196;28;20212;-84
2021/05/29 12:32:48;;;;;;;2.83;0.70;;;;;;;22.68;28.61;98573.38;8342083;28;20235;-83
2021/05/29 12:37:01;;;;;;;11.57;1.00;;;;;;;22.21;28.08;98576.31;8353150;28;20210;-83
2021/05/29 12:41:08;;;;;;;2.17;0.73;;;;;;;22.29;28.69;98570.44;8353608;28;20216;-83
2021/05/29 12:45:17;;;;;;;3.27;0.60;;;;;;;22.16;28.94;98567.94;8352714;28;20370;-82
2021/05/29 12:49:20;;;;;;;3.50;0.80;;;;;;;21.56;29.26;98564.91;8352734;28;20288;-82
2021/05/29 12:53:23;;;;;;;2.07;0.60;;;;;;;22.71;28.68;98573.09;8353042;28;20207;-82
2021/05/29 12:57:36;;;;;;;1.30;0.50;;;;;;;22.53;28.96;98570.22;8324540;28;20350;-82
2021/05/29 13:01:55;;;;;;;1.43;0.60;;;;;;;22.12;27.08;98566.53;8319866;28;20231;-84
2021/05/29 13:10:37;;;;;;;2.07;0.83;;;;;;;23.10;28.08;98573.31;8320400;28;20238;-84
2021/05/29 13:14:41;;;;;;;1.57;0.67;;;;;;;23.13;27.81;98573.03;8320032;28;20227;-84
2021/05/29 13:19:00;;;;;;;1.33;0.60;;;;;;;23.21;27.42;98560.84;8319844;28;20299;-83
2021/05/29 13:23:03;;;;;;;1.10;0.67;;;;;;;22.73;27.05;98566.72;8320460;28;20216;-83
2021/05/29 13:27:06;;;;;;;0.60;0.60;;;;;;;22.30;26.73;98564.22;8320263;28;20481;-87
2021/05/29 13:31:10;;;;;;;1.03;0.60;;;;;;;22.01;28.45;98556.88;8337616;28;20542;-86
2021/05/29 13:35:12;;;;;;;1.07;0.70;;;;;;;22.69;28.49;98573.19;8355366;28;20248;-88
2021/05/29 13:39:17;;;;;;;2.10;0.50;;;;;;;22.95;26.25;98562.25;8350828;28;20204;-87
2021/05/29 13:43:19;;;;;;;1.03;0.43;;;;;;;22.63;26.19;98571.09;8351591;28;20208;-87
2021/05/29 13:47:21;;;;;;;3.77;0.60;;;;;;;22.53;25.38;98568.41;8350996;28;20201;-85
2021/05/29 13:51:24;;;;;;;2.63;0.90;;;;;;;22.06;25.39;98567.88;8350238;28;20238;-85
2021/05/29 13:55:27;;;;;;;0.57;0.50;;;;;;;22.58;23.58;98552.16;8350293;28;20200;-86
2021/05/29 13:59:29;;;;;;;2.90;0.63;;;;;;;22.96;24.62;98555.97;8350532;28;20200;-84
2021/05/29 14:03:32;;;;;;;0.97;0.60;;;;;;;22.64;25.25;98552.50;8352238;28;20239;-85
2021/05/29 14:07:34;;;;;;;1.07;0.60;;;;;;;22.90;25.27;98544.13;8349360;28;20362;-84
2021/05/29 14:11:41;;;;;;;0.80;0.70;;;;;;;22.98;24.97;98551.41;8349489;28;20350;-84
2021/05/29 14:15:43;;;;;;;1.40;0.60;;;;;;;22.67;26.35;98561.94;8349437;28;20211;-84
2021/05/29 14:19:46;;;;;;;1.23;0.60;;;;;;;21.79;28.74;98560.44;8349123;28;20278;-86
2021/05/29 14:23:49;;;;;;;1.10;0.60;;;;;;;21.42;29.53;98568.63;8348666;28;20223;-87
2021/05/29 14:27:53;;;;;;;3.23;0.90;;;;;;;21.02;30.48;98561.22;8343833;28;20200;-84
2021/05/29 14:31:55;;;;;;;4.10;0.77;;;;;;;20.96;31.17;98570.44;8345392;28;20220;-84
2021/05/29 14:35:58;;;;;;;1.53;0.60;;;;;;;20.68;31.56;98569.09;8353388;28;20203;-85
2021/05/29 14:40:01;;;;;;;1.60;0.70;;;;;;;20.60;31.50;98572.31;8351801;28;20266;-86
2021/05/29 14:44:07;;;;;;;1.33;0.70;;;;;;;20.31;30.97;98575.31;8349668;28;20207;-85
2021/05/29 14:48:09;;;;;;;1.23;0.70;;;;;;;21.26;30.11;98569.00;8333755;28;20227;-85
2021/05/29 14:52:11;;;;;;;1.40;0.77;;;;;;;21.44;29.94;98564.94;8330475;28;20524;-85
2021/05/29 14:56:15;;;;;;;2.93;1.10;;;;;;;21.69;29.81;98564.78;8331689;28;20192;-85
2021/05/29 15:00:20;;;;;;;2.17;0.60;;;;;;;21.74;29.86;98567.84;8347560;28;20408;-85
2021/05/29 15:04:22;;;;;;;1.20;0.70;;;;;;;21.96;29.28;98557.25;8347391;28;20232;-84
2021/05/29 15:08:25;;;;;;;2.13;0.80;;;;;;;21.57;28.81;98563.94;8347019;28;20204;-84
2021/05/29 15:12:27;;;;;;;2.30;0.60;;;;;;;21.33;30.21;98558.81;8347276;28;20237;-84
2021/05/29 15:16:30;;;;;;;0.90;0.60;;;;;;;20.85;30.40;98563.38;8348471;28;20202;-86
2021/05/29 15:20:41;;;;;;;1.00;0.80;;;;;;;20.40;31.49;98576.41;8349115;28;20207;-86
2021/05/29 15:24:46;;;;;;;0.80;0.80;;;;;;;20.63;30.97;98571.22;8349403;28;20191;-86
2021/05/29 15:28:48;;;;;;;1.40;0.77;;;;;;;21.09;29.35;98562.41;8347352;28;20210;-84
2021/05/29 15:32:51;;;;;;;0.80;0.70;;;;;;;21.47;28.00;98548.88;8348889;28;20538;-86
2021/05/29 15:36:54;;;;;;;2.87;0.90;;;;;;;21.45;27.34;98556.06;8347839;28;20209;-86
2021/05/29 15:40:56;;;;;;;1.43;0.70;;;;;;;21.62;27.74;98546.81;8346907;28;20233;-86
2021/05/29 15:44:58;;;;;;;3.17;0.90;;;;;;;21.54;29.41;98548.41;8347207;28;20203;-83
2021/05/29 15:49:02;;;;;;;8.70;1.10;;;;;;;21.48;32.02;98544.47;8341370;28;20522;-87
2021/05/29 15:53:05;;;;;;;8.93;1.40;;;;;;;21.65;31.84;98543.94;8343510;28;20374;-84
2021/05/29 15:57:10;;;;;;;9.87;1.67;;;;;;;21.45;31.51;98542.88;8346964;28;20208;-84
2021/05/29 16:01:14;;;;;;;5.40;1.57;;;;;;;21.47;31.87;98542.75;8346464;28;20554;-85
2021/05/29 16:05:19;;;;;;;4.90;2.00;;;;;;;21.62;30.00;98543.34;8347321;28;20226;-85
2021/05/29 16:09:22;;;;;;;4.07;1.00;;;;;;;21.59;28.10;98546.22;8347468;28;20230;-85
2021/05/29 16:13:24;;;;;;;4.83;1.20;;;;;;;21.53;28.25;98544.06;8347112;28;20244;-84
2021/05/29 16:17:26;;;;;;;2.87;1.00;;;;;;;21.56;27.64;98543.84;8339887;28;20316;-84
2021/05/29 16:21:30;;;;;;;2.37;1.10;;;;;;;21.52;28.71;98542.41;8331005;28;20198;-84
2021/05/29 16:25:34;;;;;;;1.67;1.13;;;;;;;21.43;29.04;98543.94;8331987;28;20217;-86
2021/05/29 16:29:36;;;;;;;6.13;1.47;;;;;;;21.37;29.89;98544.44;8334351;28;20222;-85
2021/05/29 16:33:40;;;;;;;6.10;1.60;;;;;;;21.20;30.87;98545.78;8336489;28;20224;-84
2021/05/29 16:37:44;;;;;;;5.73;1.33;;;;;;;21.37;30.15;98547.06;8334795;28;20280;-84
2021/05/29 16:41:47;;;;;;;1.20;0.97;;;;;;;21.26;28.96;98543.47;8340135;28;20201;-86
2021/05/29 16:45:49;;;;;;;1.10;1.00;;;;;;;21.18;29.44;98548.53;8347895;28;20197;-84
2021/05/29 16:49:52;;;;;;;2.30;1.10;;;;;;;21.02;29.67;98545.44;8342849;28;20227;-85
2021/05/29 16:53:56;;;;;;;6.27;2.63;;;;;;;20.81;28.83;98542.66;8341101;28;20220;-84
2021/05/29 16:57:58;;;;;;;4.53;1.30;;;;;;;20.55;30.22;98548.09;8334278;28;20201;-86
2021/05/29 17:02:01;;;;;;;10.43;1.90;;;;;;;20.66;29.97;98544.69;8340394;28;20237;-84
2021/05/29 17:06:05;;;;;;;7.53;6.00;;;;;;;20.42;28.97;98542.91;8335182;28;20198;-87
2021/05/29 17:10:12;;;;;;;8.77;2.67;;;;;;;20.28;29.65;98546.59;8332136;28;20240;-86
2021/05/29 17:14:18;;;;;;;8.53;1.70;;;;;;;20.33;30.70;98548.88;8339094;28;20522;-84
2021/05/29 17:18:20;;;;;;;9.03;2.60;;;;;;;20.24;32.68;98552.22;8336184;28;20203;-85
2021/05/29 17:22:23;;;;;;;9.57;5.90;;;;;;;20.33;31.17;98555.94;8329128;28;20217;-83
2021/05/29 17:26:26;;;;;;;13.07;3.37;;;;;;;20.21;30.65;98558.53;8347740;28;20200;-83
2021/05/29 17:30:28;;;;;;;7.93;2.57;;;;;;;20.20;31.95;98564.75;8350800;28;20222;-84
2021/05/29 17:34:31;;;;;;;6.00;1.90;;;;;;;20.13;31.09;98557.44;8351522;28;20499;-85
2021/05/29 17:38:34;;;;;;;8.67;1.90;;;;;;;20.10;32.46;98556.72;8351221;28;20249;-86
2021/05/29 17:42:37;;;;;;;4.13;1.57;;;;;;;19.92;32.50;98558.06;8351096;28;20523;-85
2021/05/29 17:46:41;;;;;;;6.57;1.00;;;;;;;19.97;31.49;98555.94;8350943;28;20495;-84
2021/05/29 17:50:50;;;;;;;4.77;1.60;;;;;;;19.88;33.36;98562.69;8350406;28;20278;-83
2021/05/29 17:54:52;;;;;;;6.83;1.77;;;;;;;19.87;33.91;98558.38;8337884;28;20205;-84
2021/05/29 18:03:25;;;;;;;6.27;1.60;;;;;;;19.84;35.95;98565.69;8334785;28;20236;-84
2021/05/29 18:07:27;;;;;;;9.70;1.90;;;;;;;19.84;35.86;98569.13;8349600;28;20198;-83
2021/05/29 18:11:30;;;;;;;2.90;1.57;;;;;;;19.65;33.47;98569.59;8341575;28;20340;-82
2021/05/29 18:15:33;;;;;;;3.53;1.77;;;;;;;19.62;36.69;98574.22;8334546;28;20200;-83
2021/05/29 18:19:35;;;;;;;7.87;1.93;;;;;;;19.63;36.54;98578.53;8336353;28;20193;-82
2021/05/29 18:23:38;;;;;;;6.30;1.43;;;;;;;19.59;35.32;98582.31;8323394;28;20201;-83
2021/05/29 18:27:43;;;;;;;1.93;1.30;;;;;;;19.09;33.17;98587.56;8340095;28;20212;-83
2021/05/29 18:31:46;;;;;;;3.67;1.40;;;;;;;18.95;32.98;98586.75;8327457;28;20251;-83
2021/05/29 18:35:54;;;;;;;2.07;1.50;;;;;;;18.81;33.32;98591.25;8317552;28;20213;-84
2021/05/29 18:39:56;;;;;;;1.43;1.30;;;;;;;18.67;33.65;98597.41;8318447;28;20228;-82
2021/05/29 18:43:59;;;;;;;4.07;2.07;;;;;;;18.55;34.14;98605.16;8318975;28;20204;-81
2021/05/29 18:48:02;;;;;;;2.20;1.33;;;;;;;18.48;34.60;98609.13;8320042;28;20202;-81
2021/05/29 18:52:06;;;;;;;3.53;1.70;;;;;;;18.28;34.30;98604.38;8318274;28;20237;-82
2021/05/29 18:56:08;;;;;;;2.70;1.53;;;;;;;18.15;34.74;98613.03;8316627;28;20476;-82
2021/05/29 19:04:36;;;;;;;2.17;1.40;;;;;;;17.95;35.34;98623.97;8316929;28;20543;-84
2021/05/29 19:12:59;;;;;;;3.53;1.70;;;;;;;17.67;36.09;98623.06;8346472;28;20227;-85
2021/05/29 19:17:02;;;;;;;3.13;1.50;;;;;;;17.52;35.93;98639.75;8349119;28;20192;-85
2021/05/29 19:21:06;;;;;;;3.20;1.70;;;;;;;17.51;36.49;98640.69;8346869;28;20201;-85
2021/05/29 19:25:13;;;;;;;5.50;1.70;;;;;;;17.39;37.33;98653.59;8349226;28;20193;-86
2021/05/29 19:29:16;;;;;;;2.77;1.80;;;;;;;17.36;37.53;98647.69;8349057;28;20192;-87
2021/05/29 19:42:02;;;;;;;3.77;2.00;;;;;;;17.34;38.64;98665.28;8337759;28;20207;-85
2021/05/29 19:46:20;;;;;;;2.67;2.00;;;;;;;17.41;38.52;98661.34;8316251;28;20414;-84
2021/05/29 20:12:39;;;;;;;5.40;2.03;;;;;;;17.40;39.81;98688.44;8358378;28;20228;-83